KJVL/JVL METAR and TAF weather

Enter ICAO airport designator
Station Type Date Time Source
KJVL METAR 2020/08/11 00:10 UTC NOAA

KJVL 110010Z 29006KT 10SM OVC007 21/21 A2986


Station Type Date Time Source
KJVL Decoded METAR 2020/08/11 00:10 UTC NOAA

Janesville / Rock County, WI, United States (KJVL) 42-37N 089-02W
Aug 10, 2020 - 08:10 PM EDT / 2020.08.11 0010 UTC
Wind: from the WNW (290 degrees) at 7 MPH (6 KT):0
Visibility: 10 mile(s):0
Sky conditions: overcast
Temperature: 69 F (21 C)
Dew Point: 69 F (21 C)
Relative Humidity: 100%
Pressure (altimeter): 29.86 in. Hg (1011 hPa)
ob: KJVL 110010Z 29006KT 10SM OVC007 21/21 A2986
cycle: 0

Station Type Date Time Source
KJVL TAF 2020/08/10 23:51 UTC NOAA

TAF
AMD KJVL 102251Z 1023/1118 VRB06KT P6SM SCT120 BKN250
FM110100 29005KT P6SM BKN250
FM110500 32005KT P6SM SCT200
FM111000 00000KT P6SM FEW250

Example: see airport list